sensor_id;sensor_type;location;lat;lon;timestamp;P1;durP1;ratioP1;P2;durP2;ratioP2
21339;SDS011;10828;47.064;15.422;2023-07-30T00:01:11;4.93;;;1.43;;
21339;SDS011;10828;47.064;15.422;2023-07-30T00:03:37;2.27;;;1.33;;
21339;SDS011;10828;47.064;15.422;2023-07-30T00:06:03;3.57;;;1.30;;
21339;SDS011;10828;47.064;15.422;2023-07-30T00:08:29;3.07;;;1.60;;
21339;SDS011;10828;47.064;15.422;2023-07-30T00:10:58;3.97;;;1.50;;
21339;SDS011;10828;47.064;15.422;2023-07-30T00:13:31;5.73;;;1.40;;
21339;SDS011;10828;47.064;15.422;2023-07-30T00:15:56;3.33;;;1.33;;
21339;SDS011;10828;47.064;15.422;2023-07-30T00:18:22;5.97;;;1.93;;
21339;SDS011;10828;47.064;15.422;2023-07-30T00:20:54;4.93;;;1.80;;
21339;SDS011;10828;47.064;15.422;2023-07-30T00:23:20;4.40;;;1.80;;
21339;SDS011;10828;47.064;15.422;2023-07-30T00:28:17;3.83;;;1.90;;
21339;SDS011;10828;47.064;15.422;2023-07-30T00:30:43;4.50;;;2.00;;
21339;SDS011;10828;47.064;15.422;2023-07-30T00:33:08;4.00;;;1.73;;
21339;SDS011;10828;47.064;15.422;2023-07-30T00:38:05;4.00;;;1.77;;
21339;SDS011;10828;47.064;15.422;2023-07-30T00:40:32;3.87;;;1.60;;
21339;SDS011;10828;47.064;15.422;2023-07-30T00:43:02;3.00;;;1.47;;
21339;SDS011;10828;47.064;15.422;2023-07-30T00:45:34;5.50;;;1.80;;
21339;SDS011;10828;47.064;15.422;2023-07-30T00:48:01;5.17;;;1.60;;
21339;SDS011;10828;47.064;15.422;2023-07-30T00:50:28;3.77;;;1.73;;
21339;SDS011;10828;47.064;15.422;2023-07-30T00:52:54;3.17;;;1.50;;
21339;SDS011;10828;47.064;15.422;2023-07-30T00:55:19;3.30;;;1.90;;
21339;SDS011;10828;47.064;15.422;2023-07-30T00:57:46;3.60;;;1.57;;
21339;SDS011;10828;47.064;15.422;2023-07-30T01:00:30;5.30;;;1.90;;
21339;SDS011;10828;47.064;15.422;2023-07-30T01:03:19;3.57;;;1.80;;
21339;SDS011;10828;47.064;15.422;2023-07-30T01:05:45;5.23;;;2.00;;
21339;SDS011;10828;47.064;15.422;2023-07-30T01:08:11;4.07;;;1.97;;
21339;SDS011;10828;47.064;15.422;2023-07-30T01:16:08;4.47;;;1.60;;
21339;SDS011;10828;47.064;15.422;2023-07-30T01:18:41;3.73;;;1.60;;
21339;SDS011;10828;47.064;15.422;2023-07-30T01:21:09;4.17;;;2.07;;
21339;SDS011;10828;47.064;15.422;2023-07-30T01:23:53;3.80;;;1.63;;
21339;SDS011;10828;47.064;15.422;2023-07-30T01:29:09;5.00;;;2.30;;
21339;SDS011;10828;47.064;15.422;2023-07-30T01:31:42;4.20;;;1.90;;
21339;SDS011;10828;47.064;15.422;2023-07-30T01:36:45;5.13;;;2.03;;
21339;SDS011;10828;47.064;15.422;2023-07-30T01:41:44;2.43;;;1.40;;
21339;SDS011;10828;47.064;15.422;2023-07-30T01:44:11;2.77;;;1.60;;
21339;SDS011;10828;47.064;15.422;2023-07-30T01:46:36;5.73;;;1.87;;
21339;SDS011;10828;47.064;15.422;2023-07-30T01:49:09;3.80;;;2.00;;
21339;SDS011;10828;47.064;15.422;2023-07-30T01:51:35;5.87;;;2.00;;
21339;SDS011;10828;47.064;15.422;2023-07-30T01:54:08;3.70;;;1.77;;
21339;SDS011;10828;47.064;15.422;2023-07-30T01:56:33;3.80;;;1.93;;
21339;SDS011;10828;47.064;15.422;2023-07-30T02:02:34;4.07;;;2.00;;
21339;SDS011;10828;47.064;15.422;2023-07-30T02:05:00;4.07;;;1.80;;
21339;SDS011;10828;47.064;15.422;2023-07-30T02:07:26;4.20;;;1.93;;
21339;SDS011;10828;47.064;15.422;2023-07-30T02:09:51;4.83;;;1.50;;
21339;SDS011;10828;47.064;15.422;2023-07-30T02:12:17;5.03;;;1.73;;
21339;SDS011;10828;47.064;15.422;2023-07-30T02:14:43;3.03;;;1.67;;
21339;SDS011;10828;47.064;15.422;2023-07-30T02:17:08;4.63;;;1.50;;
21339;SDS011;10828;47.064;15.422;2023-07-30T02:19:34;5.60;;;1.67;;
21339;SDS011;10828;47.064;15.422;2023-07-30T02:21:59;4.03;;;1.80;;
21339;SDS011;10828;47.064;15.422;2023-07-30T02:24:25;5.80;;;1.80;;
21339;SDS011;10828;47.064;15.422;2023-07-30T02:26:50;3.80;;;1.80;;
21339;SDS011;10828;47.064;15.422;2023-07-30T02:29:16;4.27;;;1.70;;
21339;SDS011;10828;47.064;15.422;2023-07-30T02:31:41;4.63;;;1.73;;
21339;SDS011;10828;47.064;15.422;2023-07-30T02:34:07;4.70;;;1.90;;
21339;SDS011;10828;47.064;15.422;2023-07-30T02:36:33;2.83;;;1.63;;
21339;SDS011;10828;47.064;15.422;2023-07-30T02:38:58;5.43;;;2.10;;
21339;SDS011;10828;47.064;15.422;2023-07-30T02:41:24;3.30;;;1.60;;
21339;SDS011;10828;47.064;15.422;2023-07-30T02:43:50;3.93;;;2.00;;
21339;SDS011;10828;47.064;15.422;2023-07-30T02:46:16;5.30;;;1.70;;
21339;SDS011;10828;47.064;15.422;2023-07-30T02:48:41;3.50;;;1.90;;
21339;SDS011;10828;47.064;15.422;2023-07-30T02:51:07;5.87;;;2.10;;
21339;SDS011;10828;47.064;15.422;2023-07-30T02:53:32;3.33;;;1.93;;
21339;SDS011;10828;47.064;15.422;2023-07-30T02:55:58;3.50;;;1.83;;
21339;SDS011;10828;47.064;15.422;2023-07-30T02:58:23;4.07;;;2.10;;
21339;SDS011;10828;47.064;15.422;2023-07-30T03:00:49;3.77;;;1.70;;
21339;SDS011;10828;47.064;15.422;2023-07-30T03:03:16;4.47;;;1.80;;
21339;SDS011;10828;47.064;15.422;2023-07-30T03:05:42;6.83;;;2.10;;
21339;SDS011;10828;47.064;15.422;2023-07-30T03:08:07;4.57;;;2.13;;
21339;SDS011;10828;47.064;15.422;2023-07-30T03:10:33;4.23;;;2.10;;
21339;SDS011;10828;47.064;15.422;2023-07-30T03:13:00;4.10;;;2.30;;
21339;SDS011;10828;47.064;15.422;2023-07-30T03:15:26;4.07;;;2.10;;
21339;SDS011;10828;47.064;15.422;2023-07-30T03:17:52;7.23;;;2.67;;
21339;SDS011;10828;47.064;15.422;2023-07-30T03:20:18;4.70;;;2.43;;
21339;SDS011;10828;47.064;15.422;2023-07-30T03:22:43;4.10;;;2.00;;
21339;SDS011;10828;47.064;15.422;2023-07-30T03:25:09;4.03;;;2.00;;
21339;SDS011;10828;47.064;15.422;2023-07-30T03:27:34;4.60;;;2.40;;
21339;SDS011;10828;47.064;15.422;2023-07-30T03:30:00;7.60;;;2.63;;
21339;SDS011;10828;47.064;15.422;2023-07-30T03:32:25;4.03;;;2.30;;
21339;SDS011;10828;47.064;15.422;2023-07-30T03:34:51;7.73;;;2.20;;
21339;SDS011;10828;47.064;15.422;2023-07-30T03:37:16;6.67;;;2.80;;
21339;SDS011;10828;47.064;15.422;2023-07-30T03:39:42;5.93;;;2.70;;
21339;SDS011;10828;47.064;15.422;2023-07-30T03:42:08;6.13;;;2.50;;
21339;SDS011;10828;47.064;15.422;2023-07-30T03:44:34;6.17;;;2.63;;
21339;SDS011;10828;47.064;15.422;2023-07-30T03:47:00;6.13;;;2.50;;
21339;SDS011;10828;47.064;15.422;2023-07-30T03:49:25;7.93;;;2.47;;
21339;SDS011;10828;47.064;15.422;2023-07-30T03:51:51;5.93;;;2.73;;
21339;SDS011;10828;47.064;15.422;2023-07-30T03:54:17;5.10;;;2.07;;
21339;SDS011;10828;47.064;15.422;2023-07-30T03:56:42;5.13;;;2.30;;
21339;SDS011;10828;47.064;15.422;2023-07-30T03:59:08;5.83;;;2.63;;
21339;SDS011;10828;47.064;15.422;2023-07-30T04:01:33;4.80;;;2.10;;
21339;SDS011;10828;47.064;15.422;2023-07-30T04:03:59;5.67;;;2.40;;
21339;SDS011;10828;47.064;15.422;2023-07-30T04:06:25;5.70;;;2.63;;
21339;SDS011;10828;47.064;15.422;2023-07-30T04:08:50;8.60;;;2.67;;
21339;SDS011;10828;47.064;15.422;2023-07-30T04:11:16;4.53;;;2.13;;
21339;SDS011;10828;47.064;15.422;2023-07-30T04:13:42;9.80;;;2.73;;
21339;SDS011;10828;47.064;15.422;2023-07-30T04:16:07;4.87;;;2.20;;
21339;SDS011;10828;47.064;15.422;2023-07-30T04:18:33;5.20;;;2.30;;
21339;SDS011;10828;47.064;15.422;2023-07-30T04:20:59;4.17;;;2.20;;
21339;SDS011;10828;47.064;15.422;2023-07-30T04:23:24;6.17;;;2.73;;
21339;SDS011;10828;47.064;15.422;2023-07-30T04:25:50;3.50;;;1.97;;
21339;SDS011;10828;47.064;15.422;2023-07-30T04:28:18;7.10;;;2.00;;
21339;SDS011;10828;47.064;15.422;2023-07-30T04:30:43;6.30;;;2.43;;
21339;SDS011;10828;47.064;15.422;2023-07-30T04:33:11;5.57;;;2.50;;
21339;SDS011;10828;47.064;15.422;2023-07-30T04:35:39;8.23;;;2.30;;
21339;SDS011;10828;47.064;15.422;2023-07-30T04:38:04;6.90;;;2.40;;
21339;SDS011;10828;47.064;15.422;2023-07-30T04:40:30;7.87;;;2.90;;
21339;SDS011;10828;47.064;15.422;2023-07-30T04:42:55;7.37;;;2.50;;
21339;SDS011;10828;47.064;15.422;2023-07-30T04:45:21;5.63;;;2.30;;
21339;SDS011;10828;47.064;15.422;2023-07-30T04:47:46;5.07;;;2.33;;
21339;SDS011;10828;47.064;15.422;2023-07-30T04:50:12;4.83;;;2.27;;
21339;SDS011;10828;47.064;15.422;2023-07-30T04:52:38;5.77;;;2.40;;
21339;SDS011;10828;47.064;15.422;2023-07-30T04:55:03;6.90;;;2.40;;
21339;SDS011;10828;47.064;15.422;2023-07-30T04:57:30;3.70;;;2.13;;
21339;SDS011;10828;47.064;15.422;2023-07-30T04:59:56;3.63;;;1.93;;
21339;SDS011;10828;47.064;15.422;2023-07-30T05:02:21;4.53;;;2.23;;
21339;SDS011;10828;47.064;15.422;2023-07-30T05:04:47;5.93;;;2.20;;
21339;SDS011;10828;47.064;15.422;2023-07-30T05:07:13;7.40;;;2.33;;
21339;SDS011;10828;47.064;15.422;2023-07-30T05:09:38;3.73;;;2.20;;
21339;SDS011;10828;47.064;15.422;2023-07-30T05:12:04;4.77;;;2.00;;
21339;SDS011;10828;47.064;15.422;2023-07-30T05:14:30;6.50;;;2.37;;
21339;SDS011;10828;47.064;15.422;2023-07-30T05:16:55;5.03;;;2.40;;
21339;SDS011;10828;47.064;15.422;2023-07-30T05:19:21;6.33;;;2.70;;
21339;SDS011;10828;47.064;15.422;2023-07-30T05:21:46;5.03;;;2.37;;
21339;SDS011;10828;47.064;15.422;2023-07-30T05:24:12;6.67;;;2.77;;
21339;SDS011;10828;47.064;15.422;2023-07-30T05:26:37;6.27;;;2.40;;
21339;SDS011;10828;47.064;15.422;2023-07-30T05:29:03;5.73;;;2.63;;
21339;SDS011;10828;47.064;15.422;2023-07-30T05:31:30;5.97;;;2.63;;
21339;SDS011;10828;47.064;15.422;2023-07-30T05:33:56;5.53;;;2.30;;
21339;SDS011;10828;47.064;15.422;2023-07-30T05:36:22;6.03;;;2.37;;
21339;SDS011;10828;47.064;15.422;2023-07-30T05:38:47;5.33;;;2.50;;
21339;SDS011;10828;47.064;15.422;2023-07-30T05:41:13;5.80;;;2.70;;
21339;SDS011;10828;47.064;15.422;2023-07-30T05:43:38;5.73;;;2.53;;
21339;SDS011;10828;47.064;15.422;2023-07-30T05:46:04;5.53;;;2.87;;
21339;SDS011;10828;47.064;15.422;2023-07-30T05:48:29;5.17;;;2.83;;
21339;SDS011;10828;47.064;15.422;2023-07-30T05:50:55;5.87;;;2.43;;
21339;SDS011;10828;47.064;15.422;2023-07-30T05:53:20;6.03;;;2.90;;
21339;SDS011;10828;47.064;15.422;2023-07-30T05:55:46;5.63;;;3.20;;
21339;SDS011;10828;47.064;15.422;2023-07-30T05:58:13;5.47;;;2.90;;
21339;SDS011;10828;47.064;15.422;2023-07-30T06:00:38;6.70;;;3.30;;
21339;SDS011;10828;47.064;15.422;2023-07-30T06:03:04;4.90;;;2.73;;
21339;SDS011;10828;47.064;15.422;2023-07-30T06:05:32;6.20;;;2.70;;
21339;SDS011;10828;47.064;15.422;2023-07-30T06:07:57;4.40;;;2.30;;
21339;SDS011;10828;47.064;15.422;2023-07-30T06:10:24;4.57;;;2.43;;
21339;SDS011;10828;47.064;15.422;2023-07-30T06:12:50;5.80;;;2.43;;
21339;SDS011;10828;47.064;15.422;2023-07-30T06:15:15;7.13;;;2.90;;
21339;SDS011;10828;47.064;15.422;2023-07-30T06:17:41;7.53;;;2.70;;
21339;SDS011;10828;47.064;15.422;2023-07-30T06:20:07;7.17;;;2.93;;
21339;SDS011;10828;47.064;15.422;2023-07-30T06:22:33;6.73;;;2.80;;
21339;SDS011;10828;47.064;15.422;2023-07-30T06:24:58;6.20;;;2.50;;
21339;SDS011;10828;47.064;15.422;2023-07-30T06:27:26;5.10;;;2.60;;
21339;SDS011;10828;47.064;15.422;2023-07-30T06:29:52;6.53;;;2.77;;
21339;SDS011;10828;47.064;15.422;2023-07-30T06:32:17;7.40;;;2.60;;
21339;SDS011;10828;47.064;15.422;2023-07-30T06:34:43;7.87;;;3.33;;
21339;SDS011;10828;47.064;15.422;2023-07-30T06:37:08;9.40;;;2.93;;
21339;SDS011;10828;47.064;15.422;2023-07-30T06:39:34;5.27;;;2.70;;
21339;SDS011;10828;47.064;15.422;2023-07-30T06:41:59;5.57;;;2.30;;
21339;SDS011;10828;47.064;15.422;2023-07-30T06:44:27;5.10;;;2.60;;
21339;SDS011;10828;47.064;15.422;2023-07-30T06:46:53;7.27;;;3.20;;
21339;SDS011;10828;47.064;15.422;2023-07-30T06:49:18;7.77;;;2.83;;
21339;SDS011;10828;47.064;15.422;2023-07-30T06:51:44;7.30;;;2.27;;
21339;SDS011;10828;47.064;15.422;2023-07-30T06:54:09;5.30;;;2.77;;
21339;SDS011;10828;47.064;15.422;2023-07-30T06:56:35;7.57;;;2.33;;
21339;SDS011;10828;47.064;15.422;2023-07-30T06:59:01;4.30;;;2.37;;
21339;SDS011;10828;47.064;15.422;2023-07-30T07:01:28;5.00;;;2.40;;
21339;SDS011;10828;47.064;15.422;2023-07-30T07:03:53;5.40;;;2.60;;
21339;SDS011;10828;47.064;15.422;2023-07-30T07:06:19;7.77;;;3.10;;
21339;SDS011;10828;47.064;15.422;2023-07-30T07:08:44;5.60;;;2.67;;
21339;SDS011;10828;47.064;15.422;2023-07-30T07:11:10;7.47;;;2.90;;
21339;SDS011;10828;47.064;15.422;2023-07-30T07:13:36;6.57;;;2.90;;
21339;SDS011;10828;47.064;15.422;2023-07-30T07:16:01;6.03;;;2.97;;
21339;SDS011;10828;47.064;15.422;2023-07-30T07:18:28;5.50;;;3.10;;
21339;SDS011;10828;47.064;15.422;2023-07-30T07:20:53;5.50;;;2.90;;
21339;SDS011;10828;47.064;15.422;2023-07-30T07:23:19;7.90;;;3.10;;
21339;SDS011;10828;47.064;15.422;2023-07-30T07:25:45;5.70;;;3.10;;
21339;SDS011;10828;47.064;15.422;2023-07-30T07:28:11;6.53;;;2.87;;
21339;SDS011;10828;47.064;15.422;2023-07-30T07:30:36;5.57;;;2.87;;
21339;SDS011;10828;47.064;15.422;2023-07-30T07:33:02;5.13;;;2.60;;
21339;SDS011;10828;47.064;15.422;2023-07-30T07:35:28;4.23;;;2.50;;
21339;SDS011;10828;47.064;15.422;2023-07-30T07:37:53;4.43;;;2.33;;
21339;SDS011;10828;47.064;15.422;2023-07-30T07:40:19;4.47;;;2.50;;
21339;SDS011;10828;47.064;15.422;2023-07-30T07:42:44;4.40;;;1.97;;
21339;SDS011;10828;47.064;15.422;2023-07-30T07:45:10;8.47;;;2.63;;
21339;SDS011;10828;47.064;15.422;2023-07-30T08:13:37;3.43;;;2.03;;
21339;SDS011;10828;47.064;15.422;2023-07-30T08:16:03;7.50;;;2.40;;
21339;SDS011;10828;47.064;15.422;2023-07-30T08:18:29;4.20;;;2.10;;
21339;SDS011;10828;47.064;15.422;2023-07-30T08:20:54;3.70;;;2.17;;
21339;SDS011;10828;47.064;15.422;2023-07-30T08:23:23;3.83;;;1.80;;
21339;SDS011;10828;47.064;15.422;2023-07-30T08:25:49;5.70;;;2.30;;
21339;SDS011;10828;47.064;15.422;2023-07-30T08:28:15;6.77;;;3.30;;
21339;SDS011;10828;47.064;15.422;2023-07-30T08:30:40;4.80;;;2.40;;
21339;SDS011;10828;47.064;15.422;2023-07-30T08:33:06;3.80;;;2.30;;
21339;SDS011;10828;47.064;15.422;2023-07-30T08:35:33;4.93;;;2.17;;
21339;SDS011;10828;47.064;15.422;2023-07-30T08:37:58;5.07;;;2.10;;
21339;SDS011;10828;47.064;15.422;2023-07-30T08:40:24;4.67;;;2.27;;
21339;SDS011;10828;47.064;15.422;2023-07-30T08:42:53;4.47;;;2.23;;
21339;SDS011;10828;47.064;15.422;2023-07-30T08:45:19;4.10;;;2.10;;
21339;SDS011;10828;47.064;15.422;2023-07-30T08:47:45;3.83;;;1.90;;
21339;SDS011;10828;47.064;15.422;2023-07-30T08:50:12;4.07;;;1.90;;
21339;SDS011;10828;47.064;15.422;2023-07-30T08:52:38;4.10;;;2.10;;
21339;SDS011;10828;47.064;15.422;2023-07-30T08:55:06;5.50;;;2.10;;
21339;SDS011;10828;47.064;15.422;2023-07-30T08:57:33;6.90;;;2.60;;
21339;SDS011;10828;47.064;15.422;2023-07-30T09:02:31;5.73;;;2.30;;
21339;SDS011;10828;47.064;15.422;2023-07-30T09:05:19;5.30;;;2.10;;
21339;SDS011;10828;47.064;15.422;2023-07-30T09:07:45;5.60;;;2.40;;
21339;SDS011;10828;47.064;15.422;2023-07-30T09:10:14;7.07;;;2.00;;
21339;SDS011;10828;47.064;15.422;2023-07-30T09:12:40;3.43;;;1.63;;
21339;SDS011;10828;47.064;15.422;2023-07-30T09:15:07;3.63;;;1.80;;
21339;SDS011;10828;47.064;15.422;2023-07-30T09:17:34;4.20;;;1.83;;
21339;SDS011;10828;47.064;15.422;2023-07-30T09:20:00;4.43;;;1.60;;
21339;SDS011;10828;47.064;15.422;2023-07-30T09:22:32;2.80;;;1.60;;
21339;SDS011;10828;47.064;15.422;2023-07-30T09:25:00;3.87;;;2.07;;
21339;SDS011;10828;47.064;15.422;2023-07-30T09:27:27;4.60;;;1.80;;
21339;SDS011;10828;47.064;15.422;2023-07-30T09:29:56;2.97;;;1.80;;
21339;SDS011;10828;47.064;15.422;2023-07-30T09:32:27;3.50;;;1.73;;
21339;SDS011;10828;47.064;15.422;2023-07-30T09:35:08;2.23;;;1.20;;
21339;SDS011;10828;47.064;15.422;2023-07-30T09:37:39;7.10;;;1.77;;
21339;SDS011;10828;47.064;15.422;2023-07-30T09:40:06;3.13;;;1.60;;
21339;SDS011;10828;47.064;15.422;2023-07-30T09:42:33;3.70;;;1.27;;
21339;SDS011;10828;47.064;15.422;2023-07-30T09:45:04;3.70;;;1.70;;
21339;SDS011;10828;47.064;15.422;2023-07-30T09:47:32;3.30;;;1.60;;
21339;SDS011;10828;47.064;15.422;2023-07-30T09:49:59;3.37;;;1.60;;
21339;SDS011;10828;47.064;15.422;2023-07-30T09:52:24;3.33;;;1.77;;
21339;SDS011;10828;47.064;15.422;2023-07-30T09:54:50;2.23;;;1.30;;
21339;SDS011;10828;47.064;15.422;2023-07-30T09:57:17;1.97;;;1.17;;
21339;SDS011;10828;47.064;15.422;2023-07-30T09:59:43;2.90;;;1.47;;
21339;SDS011;10828;47.064;15.422;2023-07-30T10:02:10;4.03;;;1.30;;
21339;SDS011;10828;47.064;15.422;2023-07-30T10:04:37;2.80;;;1.20;;
21339;SDS011;10828;47.064;15.422;2023-07-30T10:07:08;2.70;;;1.20;;
21339;SDS011;10828;47.064;15.422;2023-07-30T10:09:39;3.53;;;1.10;;
21339;SDS011;10828;47.064;15.422;2023-07-30T10:12:10;4.37;;;1.10;;
21339;SDS011;10828;47.064;15.422;2023-07-30T10:14:42;2.37;;;1.20;;
21339;SDS011;10828;47.064;15.422;2023-07-30T10:17:12;4.03;;;1.03;;
21339;SDS011;10828;47.064;15.422;2023-07-30T10:19:37;4.13;;;1.33;;
21339;SDS011;10828;47.064;15.422;2023-07-30T10:24:39;3.08;;;1.08;;
21339;SDS011;10828;47.064;15.422;2023-07-30T10:27:05;2.55;;;1.23;;
21339;SDS011;10828;47.064;15.422;2023-07-30T10:29:32;3.47;;;0.90;;
21339;SDS011;10828;47.064;15.422;2023-07-30T10:32:00;2.30;;;1.17;;
21339;SDS011;10828;47.064;15.422;2023-07-30T10:34:42;2.97;;;1.15;;
21339;SDS011;10828;47.064;15.422;2023-07-30T10:37:18;1.98;;;1.05;;
21339;SDS011;10828;47.064;15.422;2023-07-30T10:39:49;2.70;;;1.17;;
21339;SDS011;10828;47.064;15.422;2023-07-30T10:42:15;2.72;;;1.10;;
21339;SDS011;10828;47.064;15.422;2023-07-30T10:44:43;1.63;;;0.90;;
21339;SDS011;10828;47.064;15.422;2023-07-30T10:47:10;1.90;;;1.00;;
21339;SDS011;10828;47.064;15.422;2023-07-30T10:49:36;1.83;;;0.90;;
21339;SDS011;10828;47.064;15.422;2023-07-30T10:52:03;2.85;;;1.00;;
21339;SDS011;10828;47.064;15.422;2023-07-30T10:54:36;2.97;;;1.17;;
21339;SDS011;10828;47.064;15.422;2023-07-30T10:57:02;5.82;;;1.50;;
21339;SDS011;10828;47.064;15.422;2023-07-30T10:59:35;2.25;;;0.80;;
21339;SDS011;10828;47.064;15.422;2023-07-30T11:02:01;5.05;;;0.80;;
21339;SDS011;10828;47.064;15.422;2023-07-30T11:04:27;2.05;;;0.98;;
21339;SDS011;10828;47.064;15.422;2023-07-30T11:06:54;6.13;;;1.23;;
21339;SDS011;10828;47.064;15.422;2023-07-30T11:09:20;2.57;;;1.17;;
21339;SDS011;10828;47.064;15.422;2023-07-30T11:11:47;1.67;;;0.90;;
21339;SDS011;10828;47.064;15.422;2023-07-30T11:14:14;2.67;;;0.98;;
21339;SDS011;10828;47.064;15.422;2023-07-30T11:16:59;2.20;;;1.08;;
21339;SDS011;10828;47.064;15.422;2023-07-30T11:19:26;2.45;;;0.82;;
21339;SDS011;10828;47.064;15.422;2023-07-30T11:21:53;2.50;;;1.20;;
21339;SDS011;10828;47.064;15.422;2023-07-30T11:24:19;2.00;;;1.10;;
21339;SDS011;10828;47.064;15.422;2023-07-30T11:26:46;2.13;;;1.10;;
21339;SDS011;10828;47.064;15.422;2023-07-30T11:29:23;3.67;;;1.30;;
21339;SDS011;10828;47.064;15.422;2023-07-30T11:31:49;5.55;;;1.05;;
21339;SDS011;10828;47.064;15.422;2023-07-30T11:34:14;2.05;;;1.10;;
21339;SDS011;10828;47.064;15.422;2023-07-30T11:36:42;1.88;;;0.90;;
21339;SDS011;10828;47.064;15.422;2023-07-30T11:39:08;1.65;;;1.00;;
21339;SDS011;10828;47.064;15.422;2023-07-30T11:41:34;3.70;;;1.00;;
21339;SDS011;10828;47.064;15.422;2023-07-30T11:44:00;3.38;;;1.10;;
21339;SDS011;10828;47.064;15.422;2023-07-30T11:46:26;2.58;;;1.00;;
21339;SDS011;10828;47.064;15.422;2023-07-30T11:48:53;1.75;;;1.02;;
21339;SDS011;10828;47.064;15.422;2023-07-30T11:51:34;1.90;;;1.00;;
21339;SDS011;10828;47.064;15.422;2023-07-30T11:54:00;2.15;;;1.10;;
21339;SDS011;10828;47.064;15.422;2023-07-30T11:56:30;2.90;;;1.40;;
21339;SDS011;10828;47.064;15.422;2023-07-30T11:59:01;3.55;;;1.10;;
21339;SDS011;10828;47.064;15.422;2023-07-30T12:01:30;2.30;;;1.10;;
21339;SDS011;10828;47.064;15.422;2023-07-30T12:03:58;3.88;;;0.95;;
21339;SDS011;10828;47.064;15.422;2023-07-30T12:06:41;2.53;;;1.10;;
21339;SDS011;10828;47.064;15.422;2023-07-30T12:09:12;1.95;;;1.00;;
21339;SDS011;10828;47.064;15.422;2023-07-30T12:11:46;2.20;;;1.10;;
21339;SDS011;10828;47.064;15.422;2023-07-30T12:14:21;3.78;;;1.10;;
21339;SDS011;10828;47.064;15.422;2023-07-30T12:16:51;2.55;;;1.20;;
21339;SDS011;10828;47.064;15.422;2023-07-30T12:19:17;2.75;;;1.30;;
21339;SDS011;10828;47.064;15.422;2023-07-30T12:21:42;5.03;;;1.40;;
21339;SDS011;10828;47.064;15.422;2023-07-30T12:24:08;4.03;;;1.20;;
21339;SDS011;10828;47.064;15.422;2023-07-30T12:26:33;4.18;;;1.20;;
21339;SDS011;10828;47.064;15.422;2023-07-30T12:28:59;1.90;;;1.00;;
21339;SDS011;10828;47.064;15.422;2023-07-30T12:31:25;1.85;;;0.90;;
21339;SDS011;10828;47.064;15.422;2023-07-30T12:33:50;1.80;;;0.85;;
21339;SDS011;10828;47.064;15.422;2023-07-30T12:36:16;3.88;;;1.10;;
21339;SDS011;10828;47.064;15.422;2023-07-30T12:38:41;2.10;;;0.90;;
21339;SDS011;10828;47.064;15.422;2023-07-30T12:41:07;1.98;;;1.10;;
21339;SDS011;10828;47.064;15.422;2023-07-30T12:43:32;2.88;;;1.20;;
21339;SDS011;10828;47.064;15.422;2023-07-30T12:45:58;2.25;;;1.20;;
21339;SDS011;10828;47.064;15.422;2023-07-30T12:48:24;1.95;;;0.90;;
21339;SDS011;10828;47.064;15.422;2023-07-30T12:50:50;2.38;;;1.10;;
21339;SDS011;10828;47.064;15.422;2023-07-30T12:53:16;2.17;;;1.13;;
21339;SDS011;10828;47.064;15.422;2023-07-30T12:55:41;2.22;;;0.90;;
21339;SDS011;10828;47.064;15.422;2023-07-30T12:58:07;1.60;;;1.00;;
21339;SDS011;10828;47.064;15.422;2023-07-30T13:00:33;1.70;;;0.85;;
21339;SDS011;10828;47.064;15.422;2023-07-30T13:03:00;1.77;;;1.00;;
21339;SDS011;10828;47.064;15.422;2023-07-30T13:05:27;2.08;;;1.08;;
21339;SDS011;10828;47.064;15.422;2023-07-30T13:07:53;2.90;;;1.13;;
21339;SDS011;10828;47.064;15.422;2023-07-30T13:10:20;3.17;;;1.17;;
21339;SDS011;10828;47.064;15.422;2023-07-30T13:12:46;1.80;;;1.00;;
21339;SDS011;10828;47.064;15.422;2023-07-30T13:15:12;2.05;;;1.10;;
21339;SDS011;10828;47.064;15.422;2023-07-30T13:17:39;2.42;;;1.00;;
21339;SDS011;10828;47.064;15.422;2023-07-30T13:20:05;3.13;;;0.95;;
21339;SDS011;10828;47.064;15.422;2023-07-30T13:22:32;2.05;;;1.20;;
21339;SDS011;10828;47.064;15.422;2023-07-30T13:24:58;2.35;;;1.02;;
21339;SDS011;10828;47.064;15.422;2023-07-30T13:27:26;2.10;;;0.80;;
21339;SDS011;10828;47.064;15.422;2023-07-30T13:29:53;2.13;;;1.17;;
21339;SDS011;10828;47.064;15.422;2023-07-30T13:32:19;2.72;;;0.93;;
21339;SDS011;10828;47.064;15.422;2023-07-30T13:34:47;2.22;;;0.98;;
21339;SDS011;10828;47.064;15.422;2023-07-30T13:37:13;1.92;;;0.80;;
21339;SDS011;10828;47.064;15.422;2023-07-30T13:39:39;2.00;;;1.02;;
21339;SDS011;10828;47.064;15.422;2023-07-30T13:42:06;1.88;;;1.08;;
21339;SDS011;10828;47.064;15.422;2023-07-30T13:44:32;1.85;;;1.00;;
21339;SDS011;10828;47.064;15.422;2023-07-30T13:46:58;1.98;;;1.08;;
21339;SDS011;10828;47.064;15.422;2023-07-30T13:49:25;1.83;;;0.90;;
21339;SDS011;10828;47.064;15.422;2023-07-30T13:51:51;2.05;;;0.90;;
21339;SDS011;10828;47.064;15.422;2023-07-30T13:54:17;1.90;;;1.05;;
21339;SDS011;10828;47.064;15.422;2023-07-30T13:56:43;1.73;;;0.80;;
21339;SDS011;10828;47.064;15.422;2023-07-30T13:59:10;2.38;;;1.00;;
21339;SDS011;10828;47.064;15.422;2023-07-30T14:01:36;2.38;;;0.93;;
21339;SDS011;10828;47.064;15.422;2023-07-30T14:04:02;1.90;;;0.98;;
21339;SDS011;10828;47.064;15.422;2023-07-30T14:06:29;4.90;;;1.13;;
21339;SDS011;10828;47.064;15.422;2023-07-30T14:08:56;1.77;;;1.10;;
21339;SDS011;10828;47.064;15.422;2023-07-30T14:11:25;2.58;;;1.00;;
21339;SDS011;10828;47.064;15.422;2023-07-30T14:13:52;3.25;;;1.02;;
21339;SDS011;10828;47.064;15.422;2023-07-30T14:16:19;1.48;;;1.00;;
21339;SDS011;10828;47.064;15.422;2023-07-30T14:18:45;2.67;;;0.98;;
21339;SDS011;10828;47.064;15.422;2023-07-30T14:21:13;1.88;;;0.90;;
21339;SDS011;10828;47.064;15.422;2023-07-30T14:23:45;1.80;;;1.02;;
21339;SDS011;10828;47.064;15.422;2023-07-30T14:26:13;2.38;;;0.90;;
21339;SDS011;10828;47.064;15.422;2023-07-30T14:28:39;1.85;;;1.10;;
21339;SDS011;10828;47.064;15.422;2023-07-30T14:31:05;1.98;;;0.90;;
21339;SDS011;10828;47.064;15.422;2023-07-30T14:33:31;2.05;;;1.00;;
21339;SDS011;10828;47.064;15.422;2023-07-30T14:35:57;3.42;;;0.90;;
21339;SDS011;10828;47.064;15.422;2023-07-30T14:38:23;2.70;;;1.10;;
21339;SDS011;10828;47.064;15.422;2023-07-30T14:40:59;2.45;;;1.27;;
21339;SDS011;10828;47.064;15.422;2023-07-30T17:16:53;3.47;;;1.15;;
21339;SDS011;10828;47.064;15.422;2023-07-30T17:19:20;2.80;;;1.40;;
21339;SDS011;10828;47.064;15.422;2023-07-30T17:21:47;2.83;;;1.33;;
21339;SDS011;10828;47.064;15.422;2023-07-30T17:24:14;4.70;;;1.35;;
21339;SDS011;10828;47.064;15.422;2023-07-30T17:26:40;3.25;;;1.40;;
21339;SDS011;10828;47.064;15.422;2023-07-30T17:29:06;2.33;;;1.10;;
21339;SDS011;10828;47.064;15.422;2023-07-30T17:31:35;4.90;;;1.17;;
21339;SDS011;10828;47.064;15.422;2023-07-30T17:34:02;4.47;;;1.40;;
21339;SDS011;10828;47.064;15.422;2023-07-30T17:36:28;3.27;;;1.37;;
21339;SDS011;10828;47.064;15.422;2023-07-30T17:38:56;2.47;;;1.00;;
21339;SDS011;10828;47.064;15.422;2023-07-30T17:41:22;3.13;;;1.30;;
21339;SDS011;10828;47.064;15.422;2023-07-30T17:43:48;6.13;;;1.10;;
21339;SDS011;10828;47.064;15.422;2023-07-30T17:46:14;2.13;;;0.90;;
21339;SDS011;10828;47.064;15.422;2023-07-30T17:48:43;2.00;;;1.07;;
21339;SDS011;10828;47.064;15.422;2023-07-30T17:51:14;2.23;;;0.90;;
21339;SDS011;10828;47.064;15.422;2023-07-30T17:53:44;5.83;;;0.87;;
21339;SDS011;10828;47.064;15.422;2023-07-30T17:56:11;3.73;;;1.10;;
21339;SDS011;10828;47.064;15.422;2023-07-30T17:58:37;2.67;;;1.10;;